AWC955 MHLM-MPTO
Flight info
| Callsign | AWC955 |
|---|---|
| Flight time | 1h 38m |
| Altitude | 37000 |
| Route | TALAG1 TALAG DCT ILLOS UM419 ANSON DCT AROVI |
| Aircraft | A320/M-SDE3FGHIRWY/LB1 |
Departure
| Time | 2026-04-20 21:53 |
|---|---|
| Airport | Ramón Villeda Morales International Airport (MHLM) |
Arrival
| Time | 2026-04-20 23:31 |
|---|---|
| Airport | Tocumen International Airport (MPTO) |
| Time | Latitude | Longitude | Altitude | Speed | Heading |
|---|---|---|---|---|---|
| 2026-04-20 21:39 | 15.45545 | -87.92662 | 106 ft | 0 kts | 309° |
| 2026-04-20 21:46 | 15.45545 | -87.92661 | 106 ft | 1 kts | 309° |
| 2026-04-20 21:46 | 15.45529 | -87.92641 | 106 ft | 4 kts | 306° |
| 2026-04-20 21:46 | 15.45514 | -87.92618 | 106 ft | 4 kts | 300° |
| 2026-04-20 21:47 | 15.45502 | -87.92594 | 106 ft | 4 kts | 284° |
| 2026-04-20 21:47 | 15.45502 | -87.92570 | 106 ft | 3 kts | 224° |
| 2026-04-20 21:47 | 15.45507 | -87.92565 | 105 ft | 0 kts | 220° |
| 2026-04-20 21:49 | 15.45506 | -87.92566 | 105 ft | 1 kts | 220° |
| 2026-04-20 21:49 | 15.45485 | -87.92584 | 105 ft | 10 kts | 220° |
| 2026-04-20 21:49 | 15.45421 | -87.92640 | 106 ft | 13 kts | 216° |
| 2026-04-20 21:49 | 15.45349 | -87.92599 | 106 ft | 14 kts | 131° |
| 2026-04-20 21:50 | 15.45275 | -87.92529 | 107 ft | 16 kts | 177° |
| 2026-04-20 21:50 | 15.45166 | -87.92599 | 108 ft | 22 kts | 218° |
| 2026-04-20 21:50 | 15.45033 | -87.92715 | 106 ft | 28 kts | 219° |
| 2026-04-20 21:50 | 15.44868 | -87.92859 | 107 ft | 34 kts | 219° |
| 2026-04-20 21:51 | 15.44677 | -87.93024 | 108 ft | 36 kts | 220° |
| 2026-04-20 21:51 | 15.44493 | -87.93182 | 108 ft | 30 kts | 219° |
| 2026-04-20 21:51 | 15.44350 | -87.93309 | 107 ft | 17 kts | 223° |
| 2026-04-20 21:51 | 15.44267 | -87.93332 | 106 ft | 13 kts | 134° |
| 2026-04-20 21:52 | 15.44250 | -87.93253 | 106 ft | 12 kts | 88° |
| 2026-04-20 21:52 | 15.44277 | -87.93211 | 106 ft | 1 kts | 42° |
| 2026-04-20 21:52 | 15.44284 | -87.93205 | 106 ft | 2 kts | 42° |
| 2026-04-20 21:52 | 15.44337 | -87.93156 | 110 ft | 33 kts | 41° |
| 2026-04-20 21:53 | 15.44749 | -87.92798 | 109 ft | 117 kts | 40° |
| 2026-04-20 21:53 | 15.45489 | -87.92145 | 423 ft | 149 kts | 41° |
| 2026-04-20 21:53 | 15.46287 | -87.91417 | 1250 ft | 157 kts | 39° |
| 2026-04-20 21:53 | 15.47134 | -87.90665 | 2026 ft | 163 kts | 39° |
| 2026-04-20 21:54 | 15.48037 | -87.89872 | 2345 ft | 180 kts | 39° |
| 2026-04-20 21:54 | 15.49058 | -87.88977 | 2548 ft | 203 kts | 39° |
| 2026-04-20 21:54 | 15.50185 | -87.87988 | 2862 ft | 224 kts | 39° |
| 2026-04-20 21:54 | 15.51439 | -87.86882 | 3267 ft | 247 kts | 39° |
| 2026-04-20 21:55 | 15.52772 | -87.85699 | 4017 ft | 256 kts | 39° |
| 2026-04-20 21:55 | 15.54132 | -87.84486 | 4866 ft | 260 kts | 39° |
| 2026-04-20 21:55 | 15.55514 | -87.83251 | 5705 ft | 265 kts | 40° |
| 2026-04-20 21:55 | 15.56920 | -87.81992 | 6550 ft | 268 kts | 40° |
| 2026-04-20 21:56 | 15.58328 | -87.80733 | 7313 ft | 273 kts | 40° |
| 2026-04-20 21:56 | 15.59775 | -87.79438 | 8075 ft | 277 kts | 41° |
| 2026-04-20 21:56 | 15.61242 | -87.78124 | 8831 ft | 282 kts | 41° |
| 2026-04-20 21:56 | 15.62724 | -87.76755 | 9564 ft | 287 kts | 48° |
| 2026-04-20 21:57 | 15.63859 | -87.75035 | 10181 ft | 294 kts | 66° |
| 2026-04-20 21:57 | 15.64395 | -87.72923 | 10338 ft | 315 kts | 87° |
| 2026-04-20 21:57 | 15.64118 | -87.70609 | 10539 ft | 334 kts | 109° |
| 2026-04-20 21:57 | 15.62969 | -87.68496 | 11041 ft | 342 kts | 130° |
| 2026-04-20 21:58 | 15.61109 | -87.66949 | 11655 ft | 348 kts | 152° |
| 2026-04-20 21:58 | 15.58910 | -87.65873 | 12289 ft | 351 kts | 155° |
| 2026-04-20 21:58 | 15.56665 | -87.64831 | 12927 ft | 354 kts | 155° |
| 2026-04-20 21:58 | 15.54403 | -87.63797 | 13563 ft | 358 kts | 155° |
| 2026-04-20 21:59 | 15.52112 | -87.62752 | 14155 ft | 361 kts | 155° |
| 2026-04-20 21:59 | 15.49804 | -87.61699 | 14693 ft | 364 kts | 155° |
| 2026-04-20 21:59 | 15.47501 | -87.60644 | 15214 ft | 368 kts | 155° |
| 2026-04-20 21:59 | 15.45132 | -87.59554 | 15746 ft | 371 kts | 155° |
| 2026-04-20 22:00 | 15.42787 | -87.58472 | 16251 ft | 375 kts | 155° |
| 2026-04-20 22:00 | 15.40392 | -87.57367 | 16743 ft | 378 kts | 155° |
| 2026-04-20 22:00 | 15.37971 | -87.56250 | 17245 ft | 382 kts | 155° |
| 2026-04-20 22:00 | 15.35506 | -87.55111 | 17754 ft | 386 kts | 155° |
| 2026-04-20 22:01 | 15.33072 | -87.53987 | 18250 ft | 389 kts | 155° |
| 2026-04-20 22:01 | 15.30581 | -87.52837 | 18695 ft | 393 kts | 155° |
| 2026-04-20 22:01 | 15.28071 | -87.51689 | 19147 ft | 396 kts | 155° |
| 2026-04-20 22:01 | 15.25533 | -87.50552 | 19609 ft | 399 kts | 156° |
| 2026-04-20 22:02 | 15.22971 | -87.49418 | 20066 ft | 402 kts | 156° |
| 2026-04-20 22:02 | 15.20392 | -87.48284 | 20529 ft | 405 kts | 156° |
| 2026-04-20 22:02 | 15.17787 | -87.47139 | 20993 ft | 408 kts | 156° |
| 2026-04-20 22:02 | 15.15170 | -87.45987 | 21454 ft | 411 kts | 156° |
| 2026-04-20 22:03 | 15.12531 | -87.44822 | 21902 ft | 413 kts | 156° |
| 2026-04-20 22:03 | 15.09878 | -87.43646 | 22328 ft | 416 kts | 156° |
| 2026-04-20 22:03 | 15.07210 | -87.42455 | 22750 ft | 419 kts | 156° |
| 2026-04-20 22:03 | 15.04522 | -87.41255 | 23165 ft | 422 kts | 156° |
| 2026-04-20 22:04 | 15.01816 | -87.40050 | 23561 ft | 424 kts | 156° |
| 2026-04-20 22:04 | 14.99092 | -87.38843 | 23891 ft | 427 kts | 156° |
| 2026-04-20 22:04 | 14.96358 | -87.37631 | 24222 ft | 429 kts | 156° |
| 2026-04-20 22:04 | 14.93636 | -87.36428 | 24526 ft | 432 kts | 156° |
| 2026-04-20 22:05 | 14.90837 | -87.35192 | 24844 ft | 434 kts | 156° |
| 2026-04-20 22:05 | 14.88084 | -87.33973 | 25159 ft | 436 kts | 156° |
| 2026-04-20 22:05 | 14.85289 | -87.32732 | 25477 ft | 438 kts | 156° |
| 2026-04-20 22:05 | 14.82478 | -87.31486 | 25795 ft | 441 kts | 156° |
| 2026-04-20 22:06 | 14.79658 | -87.30236 | 26097 ft | 443 kts | 156° |
| 2026-04-20 22:06 | 14.76813 | -87.28977 | 26403 ft | 445 kts | 156° |
| 2026-04-20 22:06 | 14.73961 | -87.27716 | 26705 ft | 447 kts | 156° |
| 2026-04-20 22:06 | 14.71091 | -87.26446 | 27000 ft | 449 kts | 156° |
| 2026-04-20 22:07 | 14.68219 | -87.25176 | 27289 ft | 451 kts | 156° |
| 2026-04-20 22:07 | 14.65322 | -87.23895 | 27582 ft | 453 kts | 156° |
| 2026-04-20 22:07 | 14.62411 | -87.22610 | 27875 ft | 455 kts | 156° |
| 2026-04-20 22:07 | 14.59504 | -87.21327 | 28178 ft | 457 kts | 156° |
| 2026-04-20 22:08 | 14.56567 | -87.20033 | 28469 ft | 459 kts | 156° |
| 2026-04-20 22:08 | 14.53625 | -87.18739 | 28770 ft | 462 kts | 156° |
| 2026-04-20 22:08 | 14.50662 | -87.17434 | 29061 ft | 464 kts | 156° |
| 2026-04-20 22:08 | 14.47723 | -87.16131 | 29340 ft | 466 kts | 155° |
| 2026-04-20 22:09 | 14.44846 | -87.14509 | 29689 ft | 466 kts | 146° |
| 2026-04-20 22:09 | 14.42320 | -87.12498 | 30107 ft | 465 kts | 137° |
| 2026-04-20 22:09 | 14.40081 | -87.10092 | 30463 ft | 464 kts | 130° |
| 2026-04-20 22:09 | 14.37960 | -87.07576 | 30805 ft | 464 kts | 131° |
| 2026-04-20 22:10 | 14.35843 | -87.05074 | 31142 ft | 464 kts | 131° |
| 2026-04-20 22:10 | 14.33715 | -87.02559 | 31483 ft | 465 kts | 131° |
| 2026-04-20 22:10 | 14.31592 | -87.00051 | 31838 ft | 465 kts | 131° |
| 2026-04-20 22:10 | 14.29467 | -86.97542 | 32184 ft | 465 kts | 131° |
| 2026-04-20 22:11 | 14.27338 | -86.95030 | 32537 ft | 465 kts | 131° |
| 2026-04-20 22:11 | 14.25208 | -86.92518 | 32901 ft | 465 kts | 131° |
| 2026-04-20 22:11 | 14.23077 | -86.90006 | 33260 ft | 465 kts | 131° |
| 2026-04-20 22:11 | 14.20946 | -86.87495 | 33609 ft | 466 kts | 131° |
| 2026-04-20 22:12 | 14.18820 | -86.84987 | 33976 ft | 465 kts | 131° |
| 2026-04-20 22:12 | 14.16691 | -86.82474 | 34313 ft | 465 kts | 131° |
| 2026-04-20 22:12 | 14.14568 | -86.79969 | 34644 ft | 464 kts | 131° |
| 2026-04-20 22:12 | 14.12441 | -86.77461 | 34965 ft | 463 kts | 131° |
| 2026-04-20 22:13 | 14.10323 | -86.74969 | 35297 ft | 462 kts | 131° |
| 2026-04-20 22:13 | 14.08205 | -86.72480 | 35630 ft | 461 kts | 131° |
| 2026-04-20 22:13 | 14.06094 | -86.69996 | 35955 ft | 460 kts | 131° |
| 2026-04-20 22:13 | 14.03994 | -86.67525 | 36265 ft | 458 kts | 131° |
| 2026-04-20 22:14 | 14.01923 | -86.65089 | 36575 ft | 457 kts | 131° |
| 2026-04-20 22:14 | 13.99833 | -86.62629 | 36883 ft | 456 kts | 131° |
| 2026-04-20 22:14 | 13.97743 | -86.60170 | 36979 ft | 457 kts | 131° |
| 2026-04-20 22:15 | 13.93519 | -86.55209 | 36986 ft | 463 kts | 131° |
| 2026-04-20 22:15 | 13.89271 | -86.50224 | 36977 ft | 463 kts | 131° |
| 2026-04-20 22:16 | 13.85252 | -86.45502 | 36979 ft | 463 kts | 131° |
| 2026-04-20 22:16 | 13.81726 | -86.41353 | 36975 ft | 463 kts | 131° |
| 2026-04-20 22:17 | 13.77475 | -86.36369 | 36979 ft | 463 kts | 131° |
| 2026-04-20 22:17 | 13.73227 | -86.31388 | 36988 ft | 463 kts | 131° |
| 2026-04-20 22:18 | 13.68967 | -86.26396 | 36988 ft | 464 kts | 131° |
| 2026-04-20 22:18 | 13.64715 | -86.21426 | 36991 ft | 463 kts | 131° |
| 2026-04-20 22:19 | 13.60457 | -86.16449 | 36988 ft | 463 kts | 131° |
| 2026-04-20 22:19 | 13.56199 | -86.11477 | 36994 ft | 463 kts | 131° |
| 2026-04-20 22:20 | 13.51976 | -86.06546 | 36996 ft | 462 kts | 131° |
| 2026-04-20 22:20 | 13.47727 | -86.01580 | 36990 ft | 462 kts | 131° |
| 2026-04-20 22:21 | 13.43476 | -85.96623 | 36994 ft | 462 kts | 131° |
| 2026-04-20 22:21 | 13.39238 | -85.91679 | 36992 ft | 461 kts | 131° |
| 2026-04-20 22:22 | 13.34992 | -85.86722 | 36993 ft | 461 kts | 131° |
| 2026-04-20 22:22 | 13.30747 | -85.81773 | 36992 ft | 461 kts | 131° |
| 2026-04-20 22:23 | 13.26514 | -85.76843 | 36997 ft | 460 kts | 131° |
| 2026-04-20 22:23 | 13.22299 | -85.71948 | 36996 ft | 460 kts | 131° |
| 2026-04-20 22:24 | 13.18088 | -85.67056 | 36992 ft | 460 kts | 131° |
| 2026-04-20 22:24 | 13.13858 | -85.62132 | 36988 ft | 460 kts | 131° |
| 2026-04-20 22:25 | 13.09625 | -85.57213 | 36984 ft | 459 kts | 131° |
| 2026-04-20 22:25 | 13.05399 | -85.52310 | 36982 ft | 459 kts | 131° |
| 2026-04-20 22:26 | 13.01170 | -85.47403 | 36975 ft | 459 kts | 131° |
| 2026-04-20 22:26 | 12.96938 | -85.42499 | 36969 ft | 459 kts | 131° |
| 2026-04-20 22:27 | 12.90605 | -85.35155 | 36961 ft | 458 kts | 131° |
| 2026-04-20 22:27 | 12.86386 | -85.30265 | 36963 ft | 458 kts | 131° |
| 2026-04-20 22:28 | 12.82160 | -85.25377 | 36960 ft | 458 kts | 131° |
| 2026-04-20 22:28 | 12.77932 | -85.20494 | 36960 ft | 458 kts | 131° |
| 2026-04-20 22:29 | 12.73737 | -85.15641 | 36963 ft | 458 kts | 131° |
| 2026-04-20 22:29 | 12.69514 | -85.10758 | 36958 ft | 457 kts | 131° |
| 2026-04-20 22:30 | 12.65293 | -85.05880 | 36958 ft | 457 kts | 131° |
| 2026-04-20 22:30 | 12.61071 | -85.01011 | 36960 ft | 457 kts | 131° |
| 2026-04-20 22:31 | 12.56861 | -84.96152 | 36958 ft | 457 kts | 131° |
| 2026-04-20 22:31 | 12.52642 | -84.91284 | 36958 ft | 456 kts | 130° |
| 2026-04-20 22:32 | 12.48431 | -84.86433 | 36964 ft | 456 kts | 131° |
| 2026-04-20 22:32 | 12.44246 | -84.81615 | 36963 ft | 456 kts | 131° |
| 2026-04-20 22:33 | 12.40040 | -84.76765 | 36963 ft | 456 kts | 131° |
| 2026-04-20 22:33 | 12.35828 | -84.71917 | 36966 ft | 455 kts | 131° |
| 2026-04-20 22:34 | 12.31617 | -84.67078 | 36966 ft | 455 kts | 130° |
| 2026-04-20 22:34 | 12.27407 | -84.62240 | 36964 ft | 455 kts | 130° |
| 2026-04-20 22:35 | 12.23204 | -84.57413 | 36962 ft | 455 kts | 130° |
| 2026-04-20 22:35 | 12.18997 | -84.52586 | 36962 ft | 454 kts | 130° |
| 2026-04-20 22:36 | 12.14799 | -84.47768 | 36960 ft | 454 kts | 130° |
| 2026-04-20 22:36 | 12.10617 | -84.42972 | 36962 ft | 454 kts | 130° |
| 2026-04-20 22:37 | 12.06414 | -84.38160 | 36967 ft | 454 kts | 130° |
| 2026-04-20 22:37 | 12.02223 | -84.33351 | 36963 ft | 454 kts | 130° |
| 2026-04-20 22:38 | 11.98026 | -84.28543 | 36962 ft | 453 kts | 130° |
| 2026-04-20 22:38 | 11.93820 | -84.23726 | 36966 ft | 453 kts | 130° |
| 2026-04-20 22:39 | 11.89632 | -84.18932 | 36964 ft | 453 kts | 130° |
| 2026-04-20 22:39 | 11.85460 | -84.14160 | 36967 ft | 453 kts | 130° |
| 2026-04-20 22:40 | 11.81339 | -84.09446 | 36965 ft | 452 kts | 130° |
| 2026-04-20 22:40 | 11.77234 | -84.04726 | 36969 ft | 452 kts | 130° |
| 2026-04-20 22:41 | 11.73046 | -83.99957 | 36968 ft | 452 kts | 130° |
| 2026-04-20 22:41 | 11.68843 | -83.95184 | 36968 ft | 452 kts | 130° |
| 2026-04-20 22:42 | 11.64649 | -83.90408 | 36968 ft | 452 kts | 130° |
| 2026-04-20 22:42 | 11.60468 | -83.85631 | 36967 ft | 452 kts | 130° |
| 2026-04-20 22:43 | 11.56282 | -83.80856 | 36971 ft | 452 kts | 130° |
| 2026-04-20 22:43 | 11.52110 | -83.76111 | 36970 ft | 451 kts | 130° |
| 2026-04-20 22:44 | 11.47920 | -83.71342 | 36967 ft | 451 kts | 130° |
| 2026-04-20 22:44 | 11.43731 | -83.66571 | 36968 ft | 451 kts | 130° |
| 2026-04-20 22:45 | 11.39544 | -83.61804 | 36969 ft | 451 kts | 130° |
| 2026-04-20 22:45 | 11.35348 | -83.57038 | 36968 ft | 451 kts | 130° |
| 2026-04-20 22:46 | 11.31159 | -83.52284 | 36965 ft | 451 kts | 130° |
| 2026-04-20 22:46 | 11.26962 | -83.47514 | 36963 ft | 451 kts | 130° |
| 2026-04-20 22:47 | 11.22779 | -83.42760 | 36965 ft | 451 kts | 130° |
| 2026-04-20 22:47 | 11.18612 | -83.38029 | 36961 ft | 451 kts | 130° |
| 2026-04-20 22:48 | 11.14650 | -83.33102 | 36960 ft | 448 kts | 121° |
| 2026-04-20 22:48 | 11.11296 | -83.27754 | 36963 ft | 448 kts | 121° |
| 2026-04-20 22:49 | 11.07923 | -83.22413 | 36959 ft | 448 kts | 121° |
| 2026-04-20 22:49 | 11.04546 | -83.17066 | 36959 ft | 448 kts | 121° |
| 2026-04-20 22:50 | 11.01179 | -83.11731 | 36960 ft | 448 kts | 121° |
| 2026-04-20 22:50 | 10.97801 | -83.06383 | 36961 ft | 448 kts | 121° |
| 2026-04-20 22:51 | 10.94435 | -83.01051 | 36962 ft | 448 kts | 121° |
| 2026-04-20 22:51 | 10.91085 | -82.95742 | 36961 ft | 448 kts | 121° |
| 2026-04-20 22:52 | 10.87720 | -82.90410 | 36962 ft | 448 kts | 121° |
| 2026-04-20 22:52 | 10.84338 | -82.85071 | 36960 ft | 448 kts | 121° |
| 2026-04-20 22:53 | 10.80959 | -82.79738 | 36962 ft | 448 kts | 121° |
| 2026-04-20 22:53 | 10.77590 | -82.74420 | 36963 ft | 448 kts | 121° |
| 2026-04-20 22:54 | 10.74210 | -82.69088 | 36961 ft | 448 kts | 121° |
| 2026-04-20 22:54 | 10.70830 | -82.63762 | 36956 ft | 448 kts | 121° |
| 2026-04-20 22:55 | 10.67497 | -82.58416 | 36958 ft | 448 kts | 120° |
| 2026-04-20 22:55 | 10.64201 | -82.53037 | 36958 ft | 448 kts | 120° |
| 2026-04-20 22:56 | 10.60892 | -82.47673 | 36958 ft | 448 kts | 120° |
| 2026-04-20 22:56 | 10.57593 | -82.42347 | 36955 ft | 448 kts | 120° |
| 2026-04-20 22:57 | 10.54277 | -82.36987 | 36926 ft | 448 kts | 121° |
| 2026-04-20 22:57 | 10.50954 | -82.31625 | 36936 ft | 448 kts | 122° |
| 2026-04-20 22:58 | 10.47634 | -82.26270 | 36942 ft | 449 kts | 121° |
| 2026-04-20 22:58 | 10.44309 | -82.20893 | 36946 ft | 449 kts | 122° |
| 2026-04-20 22:59 | 10.40983 | -82.15537 | 36951 ft | 449 kts | 122° |
| 2026-04-20 22:59 | 10.37649 | -82.10167 | 36954 ft | 449 kts | 122° |
| 2026-04-20 23:00 | 10.34313 | -82.04810 | 36948 ft | 449 kts | 122° |
| 2026-04-20 23:00 | 10.30983 | -81.99454 | 36951 ft | 449 kts | 122° |
| 2026-04-20 23:01 | 10.27678 | -81.94123 | 36957 ft | 449 kts | 122° |
| 2026-04-20 23:01 | 10.24339 | -81.88764 | 36957 ft | 449 kts | 122° |
| 2026-04-20 23:02 | 10.21004 | -81.83405 | 36951 ft | 449 kts | 122° |
| 2026-04-20 23:02 | 10.17671 | -81.78044 | 36954 ft | 449 kts | 122° |
| 2026-04-20 23:03 | 10.14338 | -81.72683 | 36955 ft | 449 kts | 122° |
| 2026-04-20 23:03 | 10.11010 | -81.67333 | 36951 ft | 449 kts | 122° |
| 2026-04-20 23:04 | 10.07669 | -81.61972 | 36955 ft | 449 kts | 122° |
| 2026-04-20 23:04 | 10.04354 | -81.56665 | 36954 ft | 449 kts | 122° |
| 2026-04-20 23:05 | 10.01019 | -81.51316 | 36949 ft | 449 kts | 122° |
| 2026-04-20 23:05 | 9.97684 | -81.45971 | 36952 ft | 449 kts | 122° |
| 2026-04-20 23:06 | 9.94347 | -81.40626 | 36955 ft | 448 kts | 122° |
| 2026-04-20 23:06 | 9.91002 | -81.35287 | 36953 ft | 448 kts | 122° |
| 2026-04-20 23:07 | 9.87709 | -81.30012 | 36950 ft | 448 kts | 122° |
| 2026-04-20 23:07 | 9.84367 | -81.24677 | 36950 ft | 448 kts | 122° |
| 2026-04-20 23:08 | 9.81020 | -81.19334 | 36950 ft | 448 kts | 122° |
| 2026-04-20 23:08 | 9.77684 | -81.13995 | 36952 ft | 448 kts | 122° |
| 2026-04-20 23:09 | 9.76013 | -81.11321 | 36804 ft | 448 kts | 122° |
| 2026-04-20 23:09 | 9.74347 | -81.08650 | 36558 ft | 448 kts | 122° |
| 2026-04-20 23:09 | 9.72680 | -81.05980 | 36310 ft | 448 kts | 122° |
| 2026-04-20 23:09 | 9.71010 | -81.03318 | 36060 ft | 449 kts | 122° |
| 2026-04-20 23:10 | 9.69331 | -81.00649 | 35823 ft | 449 kts | 122° |
| 2026-04-20 23:10 | 9.67650 | -80.97979 | 35584 ft | 450 kts | 122° |
| 2026-04-20 23:10 | 9.65970 | -80.95308 | 35347 ft | 450 kts | 122° |
| 2026-04-20 23:10 | 9.64308 | -80.92659 | 35112 ft | 451 kts | 122° |
| 2026-04-20 23:11 | 9.63174 | -80.90848 | 34956 ft | 451 kts | 122° |
| 2026-04-20 23:11 | 9.61490 | -80.88158 | 34722 ft | 452 kts | 122° |
| 2026-04-20 23:11 | 9.59087 | -80.84709 | 34416 ft | 453 kts | 131° |
| 2026-04-20 23:11 | 9.56858 | -80.82458 | 34087 ft | 453 kts | 139° |
| 2026-04-20 23:12 | 9.54442 | -80.80379 | 33059 ft | 460 kts | 139° |
| 2026-04-20 23:12 | 9.52784 | -80.78969 | 32480 ft | 462 kts | 139° |
| 2026-04-20 23:12 | 9.50307 | -80.76872 | 31718 ft | 462 kts | 139° |
| 2026-04-20 23:12 | 9.47852 | -80.74795 | 31171 ft | 458 kts | 139° |
| 2026-04-20 23:13 | 9.45450 | -80.72760 | 30579 ft | 455 kts | 139° |
| 2026-04-20 23:13 | 9.43030 | -80.70706 | 29974 ft | 452 kts | 138° |
| 2026-04-20 23:13 | 9.40629 | -80.68662 | 29313 ft | 449 kts | 138° |
| 2026-04-20 23:13 | 9.38255 | -80.66639 | 28734 ft | 444 kts | 138° |
| 2026-04-20 23:14 | 9.35902 | -80.64634 | 28131 ft | 440 kts | 138° |
| 2026-04-20 23:14 | 9.33597 | -80.62670 | 27555 ft | 436 kts | 138° |
| 2026-04-20 23:14 | 9.31289 | -80.60704 | 26972 ft | 433 kts | 138° |
| 2026-04-20 23:14 | 9.28999 | -80.58753 | 26406 ft | 429 kts | 138° |
| 2026-04-20 23:15 | 9.26715 | -80.56809 | 25834 ft | 426 kts | 138° |
| 2026-04-20 23:15 | 9.24458 | -80.54887 | 25285 ft | 423 kts | 138° |
| 2026-04-20 23:15 | 9.22213 | -80.52982 | 24750 ft | 420 kts | 138° |
| 2026-04-20 23:15 | 9.19979 | -80.51085 | 24218 ft | 418 kts | 138° |
| 2026-04-20 23:16 | 9.17760 | -80.49199 | 23710 ft | 415 kts | 138° |
| 2026-04-20 23:16 | 9.15554 | -80.47326 | 23152 ft | 413 kts | 138° |
| 2026-04-20 23:16 | 9.13358 | -80.45460 | 22648 ft | 409 kts | 138° |
| 2026-04-20 23:16 | 9.11196 | -80.43623 | 22349 ft | 401 kts | 138° |
| 2026-04-20 23:17 | 9.09090 | -80.41835 | 22228 ft | 390 kts | 137° |
| 2026-04-20 23:17 | 9.07284 | -80.39862 | 22095 ft | 375 kts | 123° |
| 2026-04-20 23:17 | 9.06059 | -80.37601 | 21967 ft | 360 kts | 110° |
| 2026-04-20 23:17 | 9.05390 | -80.35206 | 21720 ft | 351 kts | 100° |
| 2026-04-20 23:18 | 9.04917 | -80.32786 | 21332 ft | 349 kts | 100° |
| 2026-04-20 23:18 | 9.04448 | -80.30387 | 20941 ft | 346 kts | 100° |
| 2026-04-20 23:18 | 9.03983 | -80.28013 | 20546 ft | 344 kts | 100° |
| 2026-04-20 23:18 | 9.03524 | -80.25666 | 20162 ft | 343 kts | 100° |
| 2026-04-20 23:19 | 9.03064 | -80.23317 | 19752 ft | 339 kts | 100° |
| 2026-04-20 23:19 | 9.02605 | -80.20983 | 19074 ft | 336 kts | 100° |
| 2026-04-20 23:19 | 9.02151 | -80.18677 | 18422 ft | 333 kts | 100° |
| 2026-04-20 23:19 | 9.01694 | -80.16353 | 17210 ft | 343 kts | 99° |
| 2026-04-20 23:20 | 9.01222 | -80.13942 | 15891 ft | 355 kts | 100° |
| 2026-04-20 23:20 | 9.00741 | -80.11492 | 15173 ft | 348 kts | 100° |
| 2026-04-20 23:20 | 9.00275 | -80.09133 | 14944 ft | 339 kts | 100° |
| 2026-04-20 23:20 | 8.99819 | -80.06822 | 14712 ft | 331 kts | 99° |
| 2026-04-20 23:21 | 8.99372 | -80.04561 | 14477 ft | 324 kts | 100° |
| 2026-04-20 23:21 | 8.98935 | -80.02346 | 14275 ft | 317 kts | 99° |
| 2026-04-20 23:21 | 8.98511 | -80.00202 | 13959 ft | 315 kts | 100° |
| 2026-04-20 23:21 | 8.98085 | -79.98039 | 13620 ft | 313 kts | 99° |
| 2026-04-20 23:22 | 8.97660 | -79.95888 | 13235 ft | 311 kts | 100° |
| 2026-04-20 23:22 | 8.97240 | -79.93756 | 12871 ft | 310 kts | 100° |
| 2026-04-20 23:22 | 8.96821 | -79.91628 | 12422 ft | 310 kts | 99° |
| 2026-04-20 23:22 | 8.96393 | -79.89437 | 11512 ft | 326 kts | 99° |
| 2026-04-20 23:23 | 8.95945 | -79.87130 | 10560 ft | 341 kts | 99° |
| 2026-04-20 23:23 | 8.95478 | -79.84740 | 9673 ft | 348 kts | 100° |
| 2026-04-20 23:23 | 8.95016 | -79.82430 | 9448 ft | 321 kts | 99° |
| 2026-04-20 23:23 | 8.94585 | -79.80300 | 9313 ft | 298 kts | 99° |
| 2026-04-20 23:24 | 8.94176 | -79.78273 | 9060 ft | 292 kts | 99° |
| 2026-04-20 23:24 | 8.93778 | -79.76258 | 8686 ft | 292 kts | 99° |
| 2026-04-20 23:24 | 8.93380 | -79.74240 | 8343 ft | 291 kts | 99° |
| 2026-04-20 23:24 | 8.92986 | -79.72240 | 7918 ft | 292 kts | 99° |
| 2026-04-20 23:25 | 8.92724 | -79.70912 | 7747 ft | 289 kts | 99° |
| 2026-04-20 23:25 | 8.92563 | -79.70068 | 7679 ft | 273 kts | 94° |
| 2026-04-20 23:26 | 8.92333 | -79.68673 | 8826 ft | 254 kts | 98° |
| 2026-04-20 23:26 | 8.92003 | -79.66747 | 8894 ft | 306 kts | 98° |
| 2026-04-20 23:26 | 8.91577 | -79.64561 | 9131 ft | 329 kts | 100° |
| 2026-04-20 23:26 | 8.91082 | -79.62192 | 8993 ft | 358 kts | 100° |
| 2026-04-20 23:27 | 8.90544 | -79.59637 | 8759 ft | 383 kts | 100° |
| 2026-04-20 23:27 | 8.89978 | -79.56933 | 8533 ft | 403 kts | 101° |
| 2026-04-20 23:27 | 8.89410 | -79.54207 | 8572 ft | 373 kts | 99° |
| 2026-04-20 23:27 | 8.89140 | -79.51742 | 7798 ft | 347 kts | 83° |
| 2026-04-20 23:28 | 8.89859 | -79.49434 | 6418 ft | 346 kts | 57° |
| 2026-04-20 23:28 | 8.91488 | -79.47659 | 4939 ft | 348 kts | 37° |
| 2026-04-20 23:28 | 8.93477 | -79.46364 | 3909 ft | 334 kts | 29° |
| 2026-04-20 23:28 | 8.95382 | -79.45244 | 3441 ft | 292 kts | 29° |
| 2026-04-20 23:29 | 8.97084 | -79.44378 | 3248 ft | 265 kts | 24° |
| 2026-04-20 23:29 | 8.98669 | -79.43601 | 3129 ft | 238 kts | 25° |
| 2026-04-20 23:29 | 9.00056 | -79.42902 | 2951 ft | 209 kts | 25° |
| 2026-04-20 23:29 | 9.01380 | -79.42297 | 2205 ft | 208 kts | 20° |
| 2026-04-20 23:30 | 9.02516 | -79.41777 | 1449 ft | 218 kts | 26° |
| 2026-04-20 23:30 | 9.03736 | -79.40977 | 1067 ft | 205 kts | 33° |
| 2026-04-20 23:30 | 9.04870 | -79.40170 | 667 ft | 193 kts | 31° |
| 2026-04-20 23:30 | 9.05969 | -79.39519 | 433 ft | 177 kts | 27° |
| 2026-04-20 23:31 | 9.06984 | -79.38898 | 198 ft | 167 kts | 25° |
| 2026-04-20 23:31 | 9.07640 | -79.38517 | 64 ft | 157 kts | 30° |
| 2026-04-20 23:31 | 9.08411 | -79.38047 | 46 ft | 96 kts | 30° |
| 2026-04-20 23:31 | 9.08823 | -79.37800 | 47 ft | 7 kts | 49° |
| 2026-04-20 23:32 | 9.08817 | -79.37752 | 45 ft | 14 kts | 117° |
| 2026-04-20 23:32 | 9.08741 | -79.37612 | 32 ft | 28 kts | 125° |
| 2026-04-20 23:32 | 9.08661 | -79.37585 | 31 ft | 12 kts | 206° |
| 2026-04-20 23:32 | 9.08550 | -79.37658 | 31 ft | 26 kts | 213° |
| 2026-04-20 23:33 | 9.08377 | -79.37813 | 32 ft | 40 kts | 227° |
| 2026-04-20 23:33 | 9.08155 | -79.38031 | 34 ft | 46 kts | 216° |
| 2026-04-20 23:33 | 9.07884 | -79.38198 | 34 ft | 46 kts | 213° |
| 2026-04-20 23:33 | 9.07606 | -79.38362 | 35 ft | 46 kts | 212° |
| 2026-04-20 23:34 | 9.07335 | -79.38533 | 35 ft | 41 kts | 211° |
| 2026-04-20 23:34 | 9.07230 | -79.38543 | 31 ft | 8 kts | 117° |
| 2026-04-20 23:34 | 9.07183 | -79.38463 | 31 ft | 19 kts | 125° |
| 2026-04-20 23:34 | 9.07096 | -79.38389 | 30 ft | 12 kts | 200° |
| 2026-04-20 23:35 | 9.06995 | -79.38445 | 30 ft | 22 kts | 208° |
| 2026-04-20 23:35 | 9.06870 | -79.38480 | 30 ft | 0 kts | 215° |